sensor_id;sensor_type;location;lat;lon;timestamp;temperature;humidity
9837;DHT22;4957;51.412;6.724;2023-02-01T00:00:00;5.70;99.90
9837;DHT22;4957;51.412;6.724;2023-02-01T00:02:26;5.70;99.90
9837;DHT22;4957;51.412;6.724;2023-02-01T00:04:52;5.70;99.90
9837;DHT22;4957;51.412;6.724;2023-02-01T00:07:17;5.70;99.90
9837;DHT22;4957;51.412;6.724;2023-02-01T00:09:43;5.70;99.90
9837;DHT22;4957;51.412;6.724;2023-02-01T00:12:09;5.70;99.90
9837;DHT22;4957;51.412;6.724;2023-02-01T00:14:34;5.70;99.90
9837;DHT22;4957;51.412;6.724;2023-02-01T00:17:07;5.70;99.90
9837;DHT22;4957;51.412;6.724;2023-02-01T00:19:33;5.70;99.90
9837;DHT22;4957;51.412;6.724;2023-02-01T00:21:59;5.70;99.90
9837;DHT22;4957;51.412;6.724;2023-02-01T00:24:25;5.70;99.90
9837;DHT22;4957;51.412;6.724;2023-02-01T00:26:50;5.80;99.90
9837;DHT22;4957;51.412;6.724;2023-02-01T00:29:19;5.70;99.90
9837;DHT22;4957;51.412;6.724;2023-02-01T00:31:45;5.80;99.90
9837;DHT22;4957;51.412;6.724;2023-02-01T00:34:15;5.80;99.90
9837;DHT22;4957;51.412;6.724;2023-02-01T00:36:42;5.80;99.90
9837;DHT22;4957;51.412;6.724;2023-02-01T00:39:11;5.80;99.90
9837;DHT22;4957;51.412;6.724;2023-02-01T00:41:37;5.80;99.90
9837;DHT22;4957;51.412;6.724;2023-02-01T00:44:06;5.80;99.90
9837;DHT22;4957;51.412;6.724;2023-02-01T00:46:31;5.80;99.90
9837;DHT22;4957;51.412;6.724;2023-02-01T00:48:57;5.80;99.90
9837;DHT22;4957;51.412;6.724;2023-02-01T00:51:26;5.80;99.90
9837;DHT22;4957;51.412;6.724;2023-02-01T00:53:53;5.80;99.90
9837;DHT22;4957;51.412;6.724;2023-02-01T00:56:19;5.80;99.90
9837;DHT22;4957;51.412;6.724;2023-02-01T00:58:45;5.80;99.90
9837;DHT22;4957;51.412;6.724;2023-02-01T01:01:15;5.80;99.90
9837;DHT22;4957;51.412;6.724;2023-02-01T01:03:44;5.80;99.90
9837;DHT22;4957;51.412;6.724;2023-02-01T01:06:15;5.80;99.90
9837;DHT22;4957;51.412;6.724;2023-02-01T01:08:42;5.80;99.90
9837;DHT22;4957;51.412;6.724;2023-02-01T01:11:16;5.80;99.90
9837;DHT22;4957;51.412;6.724;2023-02-01T01:13:43;5.80;99.90
9837;DHT22;4957;51.412;6.724;2023-02-01T01:16:10;5.80;99.90
9837;DHT22;4957;51.412;6.724;2023-02-01T01:18:36;5.80;99.90
9837;DHT22;4957;51.412;6.724;2023-02-01T01:21:04;5.80;99.90
9837;DHT22;4957;51.412;6.724;2023-02-01T01:23:31;5.80;99.90
9837;DHT22;4957;51.412;6.724;2023-02-01T01:25:56;5.90;99.90
9837;DHT22;4957;51.412;6.724;2023-02-01T01:28:22;5.90;99.90
9837;DHT22;4957;51.412;6.724;2023-02-01T01:30:48;5.90;99.90
9837;DHT22;4957;51.412;6.724;2023-02-01T01:33:14;5.90;99.90
9837;DHT22;4957;51.412;6.724;2023-02-01T01:35:39;5.90;99.90
9837;DHT22;4957;51.412;6.724;2023-02-01T01:38:05;5.90;99.90
9837;DHT22;4957;51.412;6.724;2023-02-01T01:40:31;5.90;99.90
9837;DHT22;4957;51.412;6.724;2023-02-01T01:42:59;5.90;99.90
9837;DHT22;4957;51.412;6.724;2023-02-01T01:45:30;5.90;99.90
9837;DHT22;4957;51.412;6.724;2023-02-01T01:47:59;5.90;99.90
9837;DHT22;4957;51.412;6.724;2023-02-01T01:50:32;5.90;99.90
9837;DHT22;4957;51.412;6.724;2023-02-01T01:53:01;5.80;99.90
9837;DHT22;4957;51.412;6.724;2023-02-01T01:55:31;5.80;99.90
9837;DHT22;4957;51.412;6.724;2023-02-01T01:58:04;5.80;99.90
9837;DHT22;4957;51.412;6.724;2023-02-01T02:00:32;5.80;99.90
9837;DHT22;4957;51.412;6.724;2023-02-01T02:03:03;5.80;99.90
9837;DHT22;4957;51.412;6.724;2023-02-01T02:05:31;5.80;99.90
9837;DHT22;4957;51.412;6.724;2023-02-01T02:07:59;5.80;99.90
9837;DHT22;4957;51.412;6.724;2023-02-01T02:10:28;5.80;99.90
9837;DHT22;4957;51.412;6.724;2023-02-01T02:13:14;5.80;99.90
9837;DHT22;4957;51.412;6.724;2023-02-01T02:15:45;5.80;99.90
9837;DHT22;4957;51.412;6.724;2023-02-01T02:21:11;5.70;99.90
9837;DHT22;4957;51.412;6.724;2023-02-01T02:26:53;5.70;99.90
9837;DHT22;4957;51.412;6.724;2023-02-01T02:40:27;5.60;99.90
9837;DHT22;4957;51.412;6.724;2023-02-01T02:46:35;5.60;99.90
9837;DHT22;4957;51.412;6.724;2023-02-01T02:49:39;5.50;99.90
9837;DHT22;4957;51.412;6.724;2023-02-01T02:52:16;5.50;99.90
9837;DHT22;4957;51.412;6.724;2023-02-01T02:55:08;5.50;99.90
9837;DHT22;4957;51.412;6.724;2023-02-01T02:57:40;5.50;99.90
9837;DHT22;4957;51.412;6.724;2023-02-01T03:00:32;5.40;99.90
9837;DHT22;4957;51.412;6.724;2023-02-01T03:03:17;5.40;99.90
9837;DHT22;4957;51.412;6.724;2023-02-01T03:06:01;5.40;99.90
9837;DHT22;4957;51.412;6.724;2023-02-01T03:08:29;5.40;99.90
9837;DHT22;4957;51.412;6.724;2023-02-01T03:11:08;5.30;99.90
9837;DHT22;4957;51.412;6.724;2023-02-01T03:13:51;5.30;99.90
9837;DHT22;4957;51.412;6.724;2023-02-01T03:16:42;5.30;99.90
9837;DHT22;4957;51.412;6.724;2023-02-01T03:19:33;5.30;99.90
9837;DHT22;4957;51.412;6.724;2023-02-01T03:22:10;5.30;99.90
9837;DHT22;4957;51.412;6.724;2023-02-01T03:24:40;5.30;99.90
9837;DHT22;4957;51.412;6.724;2023-02-01T03:27:27;5.30;99.90
9837;DHT22;4957;51.412;6.724;2023-02-01T03:32:27;5.30;99.90
9837;DHT22;4957;51.412;6.724;2023-02-01T03:34:54;5.30;99.90
9837;DHT22;4957;51.412;6.724;2023-02-01T03:37:24;5.30;99.90
9837;DHT22;4957;51.412;6.724;2023-02-01T03:40:00;5.30;99.90
9837;DHT22;4957;51.412;6.724;2023-02-01T03:42:37;5.30;99.90
9837;DHT22;4957;51.412;6.724;2023-02-01T03:45:31;5.30;99.90
9837;DHT22;4957;51.412;6.724;2023-02-01T03:47:56;5.30;99.90
9837;DHT22;4957;51.412;6.724;2023-02-01T03:50:23;5.40;99.90
9837;DHT22;4957;51.412;6.724;2023-02-01T03:55:26;5.40;99.90
9837;DHT22;4957;51.412;6.724;2023-02-01T03:57:58;5.40;99.90
9837;DHT22;4957;51.412;6.724;2023-02-01T04:00:26;5.40;99.90
9837;DHT22;4957;51.412;6.724;2023-02-01T04:02:53;5.40;99.90
9837;DHT22;4957;51.412;6.724;2023-02-01T04:05:20;5.40;99.90
9837;DHT22;4957;51.412;6.724;2023-02-01T04:07:45;5.40;99.90
9837;DHT22;4957;51.412;6.724;2023-02-01T04:10:12;5.40;99.90
9837;DHT22;4957;51.412;6.724;2023-02-01T04:12:38;5.40;99.90
9837;DHT22;4957;51.412;6.724;2023-02-01T04:15:04;5.40;99.90
9837;DHT22;4957;51.412;6.724;2023-02-01T04:17:30;5.40;99.90
9837;DHT22;4957;51.412;6.724;2023-02-01T04:19:56;5.40;99.90
9837;DHT22;4957;51.412;6.724;2023-02-01T04:22:21;5.40;99.90
9837;DHT22;4957;51.412;6.724;2023-02-01T04:24:47;5.30;99.90
9837;DHT22;4957;51.412;6.724;2023-02-01T04:27:13;5.30;99.90
9837;DHT22;4957;51.412;6.724;2023-02-01T04:29:39;5.30;99.90
9837;DHT22;4957;51.412;6.724;2023-02-01T04:32:05;5.30;99.90
9837;DHT22;4957;51.412;6.724;2023-02-01T04:34:30;5.30;99.90
9837;DHT22;4957;51.412;6.724;2023-02-01T04:36:56;5.30;99.90
9837;DHT22;4957;51.412;6.724;2023-02-01T04:39:22;5.30;99.90
9837;DHT22;4957;51.412;6.724;2023-02-01T04:41:47;5.20;99.90
9837;DHT22;4957;51.412;6.724;2023-02-01T04:44:15;5.20;99.90
9837;DHT22;4957;51.412;6.724;2023-02-01T04:46:45;5.20;99.90
9837;DHT22;4957;51.412;6.724;2023-02-01T04:49:12;5.20;99.90
9837;DHT22;4957;51.412;6.724;2023-02-01T04:51:39;5.20;99.90
9837;DHT22;4957;51.412;6.724;2023-02-01T04:54:05;5.30;99.90
9837;DHT22;4957;51.412;6.724;2023-02-01T04:56:30;5.20;99.90
9837;DHT22;4957;51.412;6.724;2023-02-01T04:58:56;5.20;99.90
9837;DHT22;4957;51.412;6.724;2023-02-01T05:01:22;5.20;99.90
9837;DHT22;4957;51.412;6.724;2023-02-01T05:03:50;5.30;99.90
9837;DHT22;4957;51.412;6.724;2023-02-01T05:06:16;5.20;99.90
9837;DHT22;4957;51.412;6.724;2023-02-01T05:08:42;5.20;99.90
9837;DHT22;4957;51.412;6.724;2023-02-01T05:11:08;5.20;99.90
9837;DHT22;4957;51.412;6.724;2023-02-01T05:13:54;5.20;99.90
9837;DHT22;4957;51.412;6.724;2023-02-01T05:16:20;5.20;99.90
9837;DHT22;4957;51.412;6.724;2023-02-01T05:18:46;5.20;99.90
9837;DHT22;4957;51.412;6.724;2023-02-01T05:21:11;5.20;99.90
9837;DHT22;4957;51.412;6.724;2023-02-01T05:23:37;5.20;99.90
9837;DHT22;4957;51.412;6.724;2023-02-01T05:26:23;5.10;99.90
9837;DHT22;4957;51.412;6.724;2023-02-01T05:28:49;5.20;99.90
9837;DHT22;4957;51.412;6.724;2023-02-01T05:31:15;5.10;99.90
9837;DHT22;4957;51.412;6.724;2023-02-01T05:33:41;5.10;99.90
9837;DHT22;4957;51.412;6.724;2023-02-01T05:36:07;5.10;99.90
9837;DHT22;4957;51.412;6.724;2023-02-01T05:38:32;5.10;99.90
9837;DHT22;4957;51.412;6.724;2023-02-01T05:40:58;5.10;99.90
9837;DHT22;4957;51.412;6.724;2023-02-01T05:43:24;5.10;99.90
9837;DHT22;4957;51.412;6.724;2023-02-01T05:45:52;5.10;99.90
9837;DHT22;4957;51.412;6.724;2023-02-01T05:48:18;5.10;99.90
9837;DHT22;4957;51.412;6.724;2023-02-01T05:50:44;5.10;99.90
9837;DHT22;4957;51.412;6.724;2023-02-01T05:53:10;5.10;99.90
9837;DHT22;4957;51.412;6.724;2023-02-01T05:55:36;5.00;99.90
9837;DHT22;4957;51.412;6.724;2023-02-01T05:58:05;5.00;99.90
9837;DHT22;4957;51.412;6.724;2023-02-01T06:00:31;5.00;99.90
9837;DHT22;4957;51.412;6.724;2023-02-01T06:02:57;5.00;99.90
9837;DHT22;4957;51.412;6.724;2023-02-01T06:05:23;4.90;99.90
9837;DHT22;4957;51.412;6.724;2023-02-01T06:07:49;4.90;99.90
9837;DHT22;4957;51.412;6.724;2023-02-01T06:10:16;4.90;99.90
9837;DHT22;4957;51.412;6.724;2023-02-01T06:12:43;4.90;99.90
9837;DHT22;4957;51.412;6.724;2023-02-01T06:15:10;4.90;99.90
9837;DHT22;4957;51.412;6.724;2023-02-01T06:17:36;4.90;99.90
9837;DHT22;4957;51.412;6.724;2023-02-01T06:20:05;4.90;99.90
9837;DHT22;4957;51.412;6.724;2023-02-01T06:22:32;5.00;99.90
9837;DHT22;4957;51.412;6.724;2023-02-01T06:24:58;5.00;99.90
9837;DHT22;4957;51.412;6.724;2023-02-01T06:27:27;5.00;99.90
9837;DHT22;4957;51.412;6.724;2023-02-01T06:29:52;5.00;99.90
9837;DHT22;4957;51.412;6.724;2023-02-01T06:32:18;5.00;99.90
9837;DHT22;4957;51.412;6.724;2023-02-01T06:34:44;5.00;99.90
9837;DHT22;4957;51.412;6.724;2023-02-01T06:37:10;5.10;99.90
9837;DHT22;4957;51.412;6.724;2023-02-01T06:39:39;5.10;99.90
9837;DHT22;4957;51.412;6.724;2023-02-01T06:42:05;5.10;99.90
9837;DHT22;4957;51.412;6.724;2023-02-01T06:44:31;5.10;99.90
9837;DHT22;4957;51.412;6.724;2023-02-01T06:46:57;5.10;99.90
9837;DHT22;4957;51.412;6.724;2023-02-01T06:49:22;5.10;99.90
9837;DHT22;4957;51.412;6.724;2023-02-01T06:51:48;5.20;99.90
9837;DHT22;4957;51.412;6.724;2023-02-01T06:54:14;5.20;99.90
9837;DHT22;4957;51.412;6.724;2023-02-01T06:56:39;5.20;99.90
9837;DHT22;4957;51.412;6.724;2023-02-01T06:59:09;5.20;99.90
9837;DHT22;4957;51.412;6.724;2023-02-01T07:01:35;5.30;99.90
9837;DHT22;4957;51.412;6.724;2023-02-01T07:04:01;5.30;99.90
9837;DHT22;4957;51.412;6.724;2023-02-01T07:06:26;5.30;99.90
9837;DHT22;4957;51.412;6.724;2023-02-01T07:08:52;5.30;99.90
9837;DHT22;4957;51.412;6.724;2023-02-01T07:11:21;5.30;99.90
9837;DHT22;4957;51.412;6.724;2023-02-01T07:13:47;5.40;99.90
9837;DHT22;4957;51.412;6.724;2023-02-01T07:16:16;5.40;99.90
9837;DHT22;4957;51.412;6.724;2023-02-01T07:18:42;5.40;99.90
9837;DHT22;4957;51.412;6.724;2023-02-01T07:21:10;5.40;99.90
9837;DHT22;4957;51.412;6.724;2023-02-01T07:23:36;5.40;99.90
9837;DHT22;4957;51.412;6.724;2023-02-01T07:26:05;5.40;99.90
9837;DHT22;4957;51.412;6.724;2023-02-01T07:28:33;5.50;99.90
9837;DHT22;4957;51.412;6.724;2023-02-01T07:31:07;5.50;99.90
9837;DHT22;4957;51.412;6.724;2023-02-01T07:33:34;5.50;99.90
9837;DHT22;4957;51.412;6.724;2023-02-01T07:36:02;5.50;99.90
9837;DHT22;4957;51.412;6.724;2023-02-01T07:38:29;5.50;99.90
9837;DHT22;4957;51.412;6.724;2023-02-01T07:40:59;5.60;99.90
9837;DHT22;4957;51.412;6.724;2023-02-01T07:43:25;5.60;99.90
9837;DHT22;4957;51.412;6.724;2023-02-01T07:45:52;5.60;99.90
9837;DHT22;4957;51.412;6.724;2023-02-01T07:48:18;5.70;99.90
9837;DHT22;4957;51.412;6.724;2023-02-01T07:50:44;5.70;99.90
9837;DHT22;4957;51.412;6.724;2023-02-01T07:53:10;5.70;99.90
9837;DHT22;4957;51.412;6.724;2023-02-01T07:55:39;5.80;99.90
9837;DHT22;4957;51.412;6.724;2023-02-01T07:58:05;5.80;99.90
9837;DHT22;4957;51.412;6.724;2023-02-01T08:00:31;5.90;99.90
9837;DHT22;4957;51.412;6.724;2023-02-01T08:03:15;5.90;99.90
9837;DHT22;4957;51.412;6.724;2023-02-01T08:05:41;5.90;99.90
9837;DHT22;4957;51.412;6.724;2023-02-01T08:08:07;6.00;99.90
9837;DHT22;4957;51.412;6.724;2023-02-01T08:10:33;6.00;99.90
9837;DHT22;4957;51.412;6.724;2023-02-01T08:13:01;6.00;99.90
9837;DHT22;4957;51.412;6.724;2023-02-01T08:15:28;6.00;99.90
9837;DHT22;4957;51.412;6.724;2023-02-01T08:17:54;6.00;99.90
9837;DHT22;4957;51.412;6.724;2023-02-01T08:20:21;6.00;99.90
9837;DHT22;4957;51.412;6.724;2023-02-01T08:22:49;6.00;99.90
9837;DHT22;4957;51.412;6.724;2023-02-01T08:25:14;6.00;99.90
9837;DHT22;4957;51.412;6.724;2023-02-01T08:27:40;6.00;99.90
9837;DHT22;4957;51.412;6.724;2023-02-01T08:30:06;6.10;99.90
9837;DHT22;4957;51.412;6.724;2023-02-01T08:32:33;6.10;99.90
9837;DHT22;4957;51.412;6.724;2023-02-01T08:34:59;6.10;99.90
9837;DHT22;4957;51.412;6.724;2023-02-01T08:37:24;6.10;99.90
9837;DHT22;4957;51.412;6.724;2023-02-01T08:39:50;6.10;99.90
9837;DHT22;4957;51.412;6.724;2023-02-01T08:42:16;6.20;99.90
9837;DHT22;4957;51.412;6.724;2023-02-01T08:45:01;6.20;99.90
9837;DHT22;4957;51.412;6.724;2023-02-01T08:47:28;6.20;99.90
9837;DHT22;4957;51.412;6.724;2023-02-01T08:49:54;6.30;99.90
9837;DHT22;4957;51.412;6.724;2023-02-01T08:52:20;6.30;99.90
9837;DHT22;4957;51.412;6.724;2023-02-01T08:54:45;6.30;99.90
9837;DHT22;4957;51.412;6.724;2023-02-01T08:57:11;6.30;99.90
9837;DHT22;4957;51.412;6.724;2023-02-01T08:59:37;6.40;99.90
9837;DHT22;4957;51.412;6.724;2023-02-01T09:02:03;6.40;99.90
9837;DHT22;4957;51.412;6.724;2023-02-01T09:04:28;6.40;99.90
9837;DHT22;4957;51.412;6.724;2023-02-01T09:06:54;6.50;99.90
9837;DHT22;4957;51.412;6.724;2023-02-01T09:09:22;6.50;99.90
9837;DHT22;4957;51.412;6.724;2023-02-01T09:11:47;6.50;99.90
9837;DHT22;4957;51.412;6.724;2023-02-01T09:14:14;6.60;99.90
9837;DHT22;4957;51.412;6.724;2023-02-01T09:16:40;6.60;99.90
9837;DHT22;4957;51.412;6.724;2023-02-01T09:19:06;6.60;99.90
9837;DHT22;4957;51.412;6.724;2023-02-01T09:21:31;6.60;99.90
9837;DHT22;4957;51.412;6.724;2023-02-01T09:23:58;6.60;99.90
9837;DHT22;4957;51.412;6.724;2023-02-01T09:26:24;6.70;99.90
9837;DHT22;4957;51.412;6.724;2023-02-01T09:28:51;6.70;99.90
9837;DHT22;4957;51.412;6.724;2023-02-01T09:31:17;6.70;99.90
9837;DHT22;4957;51.412;6.724;2023-02-01T09:33:42;6.80;99.90
9837;DHT22;4957;51.412;6.724;2023-02-01T09:36:08;6.80;99.90
9837;DHT22;4957;51.412;6.724;2023-02-01T09:38:33;6.80;99.90
9837;DHT22;4957;51.412;6.724;2023-02-01T09:40:59;6.80;99.90
9837;DHT22;4957;51.412;6.724;2023-02-01T09:46:19;6.90;99.90
9837;DHT22;4957;51.412;6.724;2023-02-01T09:48:47;6.90;99.90
9837;DHT22;4957;51.412;6.724;2023-02-01T09:51:23;7.00;99.90
9837;DHT22;4957;51.412;6.724;2023-02-01T09:56:46;7.10;99.90
9837;DHT22;4957;51.412;6.724;2023-02-01T10:02:00;7.10;99.90
9837;DHT22;4957;51.412;6.724;2023-02-01T10:04:27;7.20;99.90
9837;DHT22;4957;51.412;6.724;2023-02-01T10:09:58;7.20;99.90
9837;DHT22;4957;51.412;6.724;2023-02-01T10:21:44;7.40;99.90
9837;DHT22;4957;51.412;6.724;2023-02-01T10:27:11;7.50;99.90
9837;DHT22;4957;51.412;6.724;2023-02-01T10:29:41;7.60;99.90
9837;DHT22;4957;51.412;6.724;2023-02-01T10:32:16;7.60;99.90
9837;DHT22;4957;51.412;6.724;2023-02-01T10:34:46;7.60;99.90
9837;DHT22;4957;51.412;6.724;2023-02-01T10:37:33;7.70;99.90
9837;DHT22;4957;51.412;6.724;2023-02-01T10:40:15;7.70;99.90
9837;DHT22;4957;51.412;6.724;2023-02-01T10:42:41;7.70;99.90
9837;DHT22;4957;51.412;6.724;2023-02-01T10:45:17;7.80;99.90
9837;DHT22;4957;51.412;6.724;2023-02-01T10:47:43;7.80;99.90
9837;DHT22;4957;51.412;6.724;2023-02-01T10:50:35;7.80;99.90
9837;DHT22;4957;51.412;6.724;2023-02-01T10:53:38;7.80;99.90
9837;DHT22;4957;51.412;6.724;2023-02-01T10:56:12;7.90;99.90
9837;DHT22;4957;51.412;6.724;2023-02-01T10:58:46;7.90;99.90
9837;DHT22;4957;51.412;6.724;2023-02-01T11:01:25;7.90;99.90
9837;DHT22;4957;51.412;6.724;2023-02-01T11:03:58;7.90;99.90
9837;DHT22;4957;51.412;6.724;2023-02-01T11:06:31;8.00;99.90
9837;DHT22;4957;51.412;6.724;2023-02-01T11:09:16;8.00;99.90
9837;DHT22;4957;51.412;6.724;2023-02-01T11:14:17;8.00;99.90
9837;DHT22;4957;51.412;6.724;2023-02-01T11:16:48;8.00;99.90
9837;DHT22;4957;51.412;6.724;2023-02-01T11:19:16;8.10;99.90
9837;DHT22;4957;51.412;6.724;2023-02-01T11:21:43;8.10;99.90
9837;DHT22;4957;51.412;6.724;2023-02-01T11:24:25;8.20;99.90
9837;DHT22;4957;51.412;6.724;2023-02-01T11:26:57;8.20;99.90
9837;DHT22;4957;51.412;6.724;2023-02-01T11:29:25;8.20;99.90
9837;DHT22;4957;51.412;6.724;2023-02-01T11:31:59;8.30;99.90
9837;DHT22;4957;51.412;6.724;2023-02-01T11:34:36;8.30;99.90
9837;DHT22;4957;51.412;6.724;2023-02-01T11:37:03;8.30;99.90
9837;DHT22;4957;51.412;6.724;2023-02-01T11:39:31;8.30;99.90
9837;DHT22;4957;51.412;6.724;2023-02-01T11:42:25;8.40;99.90
9837;DHT22;4957;51.412;6.724;2023-02-01T11:44:50;8.40;99.90
9837;DHT22;4957;51.412;6.724;2023-02-01T11:47:20;8.40;99.90
9837;DHT22;4957;51.412;6.724;2023-02-01T11:49:47;8.40;99.90
9837;DHT22;4957;51.412;6.724;2023-02-01T11:58:36;8.50;99.90
9837;DHT22;4957;51.412;6.724;2023-02-01T12:06:55;8.50;99.90
9837;DHT22;4957;51.412;6.724;2023-02-01T12:15:31;8.50;99.90
9837;DHT22;4957;51.412;6.724;2023-02-01T12:18:11;8.50;99.90
9837;DHT22;4957;51.412;6.724;2023-02-01T12:20:55;8.50;99.90
9837;DHT22;4957;51.412;6.724;2023-02-01T12:31:15;8.40;99.90
9837;DHT22;4957;51.412;6.724;2023-02-01T12:37:15;8.30;99.90
9837;DHT22;4957;51.412;6.724;2023-02-01T12:40:12;8.30;99.90
9837;DHT22;4957;51.412;6.724;2023-02-01T12:42:56;8.20;99.90
9837;DHT22;4957;51.412;6.724;2023-02-01T12:46:04;8.20;99.90
9837;DHT22;4957;51.412;6.724;2023-02-01T12:48:35;8.20;99.90
9837;DHT22;4957;51.412;6.724;2023-02-01T12:51:17;8.20;99.90
9837;DHT22;4957;51.412;6.724;2023-02-01T12:56:27;8.10;99.90
9837;DHT22;4957;51.412;6.724;2023-02-01T12:58:58;8.10;99.90
9837;DHT22;4957;51.412;6.724;2023-02-01T13:01:46;8.10;99.90
9837;DHT22;4957;51.412;6.724;2023-02-01T13:04:23;8.10;99.90
9837;DHT22;4957;51.412;6.724;2023-02-01T13:06:55;8.10;99.90
9837;DHT22;4957;51.412;6.724;2023-02-01T13:12:35;8.00;99.90
9837;DHT22;4957;51.412;6.724;2023-02-01T13:15:20;8.00;99.90
9837;DHT22;4957;51.412;6.724;2023-02-01T13:17:47;8.00;99.90
9837;DHT22;4957;51.412;6.724;2023-02-01T13:20:33;7.90;99.90
9837;DHT22;4957;51.412;6.724;2023-02-01T13:25:53;8.00;99.90
9837;DHT22;4957;51.412;6.724;2023-02-01T13:31:29;7.90;99.90
9837;DHT22;4957;51.412;6.724;2023-02-01T13:42:25;8.00;99.90
9837;DHT22;4957;51.412;6.724;2023-02-01T13:45:03;8.00;99.90
9837;DHT22;4957;51.412;6.724;2023-02-01T13:47:39;8.00;99.90
9837;DHT22;4957;51.412;6.724;2023-02-01T13:50:26;8.00;99.90
9837;DHT22;4957;51.412;6.724;2023-02-01T13:53:03;8.00;99.90
9837;DHT22;4957;51.412;6.724;2023-02-01T13:55:35;8.00;99.90
9837;DHT22;4957;51.412;6.724;2023-02-01T13:58:14;8.00;99.90
9837;DHT22;4957;51.412;6.724;2023-02-01T14:00:42;8.10;99.90
9837;DHT22;4957;51.412;6.724;2023-02-01T14:03:10;8.10;99.90
9837;DHT22;4957;51.412;6.724;2023-02-01T14:10:52;8.10;99.90
9837;DHT22;4957;51.412;6.724;2023-02-01T14:13:29;8.10;99.90
9837;DHT22;4957;51.412;6.724;2023-02-01T14:21:19;8.20;99.90
9837;DHT22;4957;51.412;6.724;2023-02-01T14:24:15;8.20;99.90
9837;DHT22;4957;51.412;6.724;2023-02-01T14:26:58;8.20;99.90
9837;DHT22;4957;51.412;6.724;2023-02-01T14:39:49;8.20;99.90
9837;DHT22;4957;51.412;6.724;2023-02-01T14:42:46;8.20;99.90
9837;DHT22;4957;51.412;6.724;2023-02-01T14:50:34;8.20;99.90
9837;DHT22;4957;51.412;6.724;2023-02-01T14:55:57;8.20;99.90
9837;DHT22;4957;51.412;6.724;2023-02-01T14:59:00;8.20;99.90
9837;DHT22;4957;51.412;6.724;2023-02-01T15:01:32;8.20;99.90
9837;DHT22;4957;51.412;6.724;2023-02-01T15:04:17;8.30;99.90
9837;DHT22;4957;51.412;6.724;2023-02-01T15:09:25;8.30;99.90
9837;DHT22;4957;51.412;6.724;2023-02-01T15:12:03;8.30;99.90
9837;DHT22;4957;51.412;6.724;2023-02-01T15:14:36;8.30;99.90
9837;DHT22;4957;51.412;6.724;2023-02-01T15:17:03;8.30;99.90
9837;DHT22;4957;51.412;6.724;2023-02-01T15:19:29;8.30;99.90
9837;DHT22;4957;51.412;6.724;2023-02-01T15:21:58;8.30;99.90
9837;DHT22;4957;51.412;6.724;2023-02-01T15:24:27;8.30;99.90
9837;DHT22;4957;51.412;6.724;2023-02-01T15:26:54;8.30;99.90
9837;DHT22;4957;51.412;6.724;2023-02-01T15:29:22;8.30;99.90
9837;DHT22;4957;51.412;6.724;2023-02-01T15:31:53;8.30;99.90
9837;DHT22;4957;51.412;6.724;2023-02-01T15:34:20;8.30;99.90
9837;DHT22;4957;51.412;6.724;2023-02-01T15:36:47;8.30;99.90
9837;DHT22;4957;51.412;6.724;2023-02-01T15:39:22;8.30;99.90
9837;DHT22;4957;51.412;6.724;2023-02-01T15:42:19;8.30;99.90
9837;DHT22;4957;51.412;6.724;2023-02-01T15:44:46;8.30;99.90
9837;DHT22;4957;51.412;6.724;2023-02-01T15:47:29;8.40;99.90
9837;DHT22;4957;51.412;6.724;2023-02-01T15:49:59;8.40;99.90
9837;DHT22;4957;51.412;6.724;2023-02-01T15:54:59;8.40;99.90
9837;DHT22;4957;51.412;6.724;2023-02-01T15:57:35;8.40;99.90
9837;DHT22;4957;51.412;6.724;2023-02-01T16:02:54;8.40;99.90
9837;DHT22;4957;51.412;6.724;2023-02-01T16:05:42;8.40;99.90
9837;DHT22;4957;51.412;6.724;2023-02-01T16:08:16;8.40;99.90
9837;DHT22;4957;51.412;6.724;2023-02-01T16:10:47;8.50;99.90
9837;DHT22;4957;51.412;6.724;2023-02-01T16:13:14;8.50;99.90
9837;DHT22;4957;51.412;6.724;2023-02-01T16:15:43;8.40;99.90
9837;DHT22;4957;51.412;6.724;2023-02-01T16:18:11;8.50;99.90
9837;DHT22;4957;51.412;6.724;2023-02-01T16:20:39;8.50;99.90
9837;DHT22;4957;51.412;6.724;2023-02-01T16:23:07;8.40;99.90
9837;DHT22;4957;51.412;6.724;2023-02-01T16:25:34;8.50;99.90
9837;DHT22;4957;51.412;6.724;2023-02-01T16:28:00;8.40;99.90
9837;DHT22;4957;51.412;6.724;2023-02-01T16:30:26;8.50;99.90
9837;DHT22;4957;51.412;6.724;2023-02-01T16:32:56;8.40;99.90
9837;DHT22;4957;51.412;6.724;2023-02-01T16:35:34;8.40;99.90
9837;DHT22;4957;51.412;6.724;2023-02-01T16:38:08;8.40;99.90
9837;DHT22;4957;51.412;6.724;2023-02-01T16:40:38;8.40;99.90
9837;DHT22;4957;51.412;6.724;2023-02-01T16:43:24;8.50;99.90
9837;DHT22;4957;51.412;6.724;2023-02-01T16:45:53;8.40;99.90
9837;DHT22;4957;51.412;6.724;2023-02-01T16:48:26;8.50;99.90
9837;DHT22;4957;51.412;6.724;2023-02-01T16:50:55;8.40;99.90
9837;DHT22;4957;51.412;6.724;2023-02-01T16:53:22;8.50;99.90
9837;DHT22;4957;51.412;6.724;2023-02-01T16:55:49;8.50;99.90
9837;DHT22;4957;51.412;6.724;2023-02-01T16:58:16;8.50;99.90
9837;DHT22;4957;51.412;6.724;2023-02-01T17:00:43;8.50;99.90
9837;DHT22;4957;51.412;6.724;2023-02-01T17:03:12;8.50;99.90
9837;DHT22;4957;51.412;6.724;2023-02-01T17:05:49;8.50;99.90
9837;DHT22;4957;51.412;6.724;2023-02-01T17:08:18;8.50;99.90
9837;DHT22;4957;51.412;6.724;2023-02-01T17:10:46;8.50;99.90
9837;DHT22;4957;51.412;6.724;2023-02-01T17:13:15;8.50;99.90
9837;DHT22;4957;51.412;6.724;2023-02-01T17:15:49;8.50;99.90
9837;DHT22;4957;51.412;6.724;2023-02-01T17:18:17;8.50;99.90
9837;DHT22;4957;51.412;6.724;2023-02-01T17:20:43;8.50;99.90
9837;DHT22;4957;51.412;6.724;2023-02-01T17:23:11;8.50;99.90
9837;DHT22;4957;51.412;6.724;2023-02-01T17:25:37;8.50;99.90
9837;DHT22;4957;51.412;6.724;2023-02-01T17:28:03;8.40;99.90
9837;DHT22;4957;51.412;6.724;2023-02-01T17:30:30;8.40;99.90
9837;DHT22;4957;51.412;6.724;2023-02-01T17:32:56;8.50;99.90
9837;DHT22;4957;51.412;6.724;2023-02-01T17:35:25;8.50;99.90
9837;DHT22;4957;51.412;6.724;2023-02-01T17:37:51;8.50;99.90
9837;DHT22;4957;51.412;6.724;2023-02-01T17:40:17;8.50;99.90
9837;DHT22;4957;51.412;6.724;2023-02-01T17:42:43;8.50;99.90
9837;DHT22;4957;51.412;6.724;2023-02-01T17:45:34;8.50;99.90
9837;DHT22;4957;51.412;6.724;2023-02-01T17:48:05;8.50;99.90
9837;DHT22;4957;51.412;6.724;2023-02-01T17:50:34;8.50;99.90
9837;DHT22;4957;51.412;6.724;2023-02-01T17:53:00;8.40;99.90
9837;DHT22;4957;51.412;6.724;2023-02-01T17:55:27;8.50;99.90
9837;DHT22;4957;51.412;6.724;2023-02-01T17:57:53;8.40;99.90
9837;DHT22;4957;51.412;6.724;2023-02-01T18:00:20;8.50;99.90
9837;DHT22;4957;51.412;6.724;2023-02-01T18:02:46;8.50;99.90
9837;DHT22;4957;51.412;6.724;2023-02-01T18:07:56;8.50;99.90
9837;DHT22;4957;51.412;6.724;2023-02-01T18:10:21;8.40;99.90
9837;DHT22;4957;51.412;6.724;2023-02-01T18:12:47;8.40;99.90
9837;DHT22;4957;51.412;6.724;2023-02-01T18:15:19;8.40;99.90
9837;DHT22;4957;51.412;6.724;2023-02-01T18:17:45;8.40;99.90
9837;DHT22;4957;51.412;6.724;2023-02-01T18:20:15;8.40;99.90
9837;DHT22;4957;51.412;6.724;2023-02-01T18:22:42;8.30;99.90
9837;DHT22;4957;51.412;6.724;2023-02-01T18:25:20;8.30;99.90
9837;DHT22;4957;51.412;6.724;2023-02-01T18:27:50;8.30;99.90
9837;DHT22;4957;51.412;6.724;2023-02-01T18:30:24;8.20;99.90
9837;DHT22;4957;51.412;6.724;2023-02-01T18:32:50;8.20;99.90
9837;DHT22;4957;51.412;6.724;2023-02-01T18:35:24;8.20;99.90
9837;DHT22;4957;51.412;6.724;2023-02-01T18:37:51;8.20;99.90
9837;DHT22;4957;51.412;6.724;2023-02-01T18:40:25;8.20;99.90
9837;DHT22;4957;51.412;6.724;2023-02-01T18:42:52;8.20;99.90
9837;DHT22;4957;51.412;6.724;2023-02-01T18:45:38;8.20;99.90
9837;DHT22;4957;51.412;6.724;2023-02-01T18:48:06;8.20;99.90
9837;DHT22;4957;51.412;6.724;2023-02-01T18:50:41;8.20;99.90
9837;DHT22;4957;51.412;6.724;2023-02-01T18:53:18;8.10;99.90
9837;DHT22;4957;51.412;6.724;2023-02-01T18:55:47;8.10;99.90
9837;DHT22;4957;51.412;6.724;2023-02-01T18:58:15;8.10;99.90